Time;durP1;ratioP1;P1;durP2;ratioP2;P2;SDS_P1;SDS_P2;PMS_P1;PMS_P2;Temp;Humidity;BMP_temperature;BMP_pressure;BME280_temperature;BME280_humidity;BME280_pressure;Samples;Min_cycle;Max_cycle;Signal;HPM_P1;HPM_P2
2022/11/08 00:02:29;;;;;;;12.23;5.75;;;;;;;9.30;100.00;94944.34;5058511;28;20150;-88
2022/11/08 00:04:54;;;;;;;15.23;6.55;;;;;;;9.27;100.00;94944.03;5024510;28;20124;-88
2022/11/08 00:15:37;;;;;;;10.63;5.13;;;;;;;9.41;100.00;94932.16;5043627;28;20117;-89
2022/11/08 00:18:04;;;;;;;14.70;5.38;;;;;;;9.47;100.00;94935.63;5041451;28;20397;-88
2022/11/08 00:20:32;;;;;;;9.48;4.93;;;;;;;9.46;100.00;94934.81;5041261;28;20436;-89
2022/11/08 00:22:57;;;;;;;9.45;5.03;;;;;;;9.36;100.00;94931.31;5024262;28;20037;-89
2022/11/08 00:25:22;;;;;;;6.57;2.83;;;;;;;9.51;100.00;94939.31;5024355;28;20055;-89
2022/11/08 00:27:48;;;;;;;9.05;4.78;;;;;;;9.35;100.00;94938.38;5024187;28;20031;-89
2022/11/08 00:30:13;;;;;;;7.40;3.75;;;;;;;9.38;100.00;94937.88;5023955;28;20060;-89
2022/11/08 00:32:39;;;;;;;7.40;2.97;;;;;;;9.52;100.00;94934.88;5023726;28;20335;-89
2022/11/08 00:35:05;;;;;;;5.85;2.88;;;;;;;9.44;100.00;94942.13;5040255;28;20025;-89
2022/11/08 00:37:30;;;;;;;5.78;2.50;;;;;;;9.38;100.00;94942.31;5024456;28;20029;-88
2022/11/08 00:39:56;;;;;;;4.25;2.30;;;;;;;9.36;100.00;94942.56;5023862;28;20028;-88
2022/11/08 00:42:21;;;;;;;6.72;2.38;;;;;;;9.38;100.00;94948.34;5024009;28;20021;-88
2022/11/08 00:44:46;;;;;;;4.43;2.00;;;;;;;9.39;100.00;94944.69;5040115;28;20036;-89
2022/11/08 00:47:12;;;;;;;4.40;2.38;;;;;;;9.39;100.00;94939.47;5024006;28;20055;-89
2022/11/08 00:49:38;;;;;;;6.07;2.38;;;;;;;9.43;100.00;94951.00;5040134;28;20082;-89
2022/11/08 00:52:04;;;;;;;3.08;1.58;;;;;;;9.51;100.00;94951.63;5023402;28;20028;-88
2022/11/08 00:54:29;;;;;;;3.55;1.95;;;;;;;9.59;100.00;94945.94;5023847;28;20028;-89
2022/11/08 00:56:54;;;;;;;2.92;1.50;;;;;;;9.54;100.00;94945.88;5040031;28;20029;-89
2022/11/08 00:59:20;;;;;;;5.93;1.83;;;;;;;9.48;100.00;94951.06;5023712;28;20056;-89
2022/11/08 01:01:46;;;;;;;2.38;1.30;;;;;;;9.71;100.00;94951.03;5023797;28;20434;-89
2022/11/08 01:04:13;;;;;;;3.03;1.20;;;;;;;9.86;100.00;94950.38;5023376;28;20025;-89
2022/11/08 01:06:39;;;;;;;4.97;1.38;;;;;;;9.89;100.00;94950.69;5022566;28;20029;-88
2022/11/08 01:09:05;;;;;;;3.63;1.20;;;;;;;10.00;100.00;94945.53;5023412;28;20082;-88
2022/11/08 01:11:31;;;;;;;4.30;1.60;;;;;;;9.85;100.00;94957.47;5039463;28;20032;-88
2022/11/08 01:13:58;;;;;;;3.58;1.38;;;;;;;9.75;100.00;94949.50;5023322;28;20029;-89
2022/11/08 01:16:26;;;;;;;4.80;1.60;;;;;;;9.69;100.00;94948.66;5039332;28;20024;-89
2022/11/08 01:18:56;;;;;;;2.30;1.42;;;;;;;9.64;100.00;94946.00;5039658;28;20028;-88
2022/11/08 01:21:21;;;;;;;5.20;1.50;;;;;;;9.48;100.00;94943.22;5039902;28;20032;-89
2022/11/08 01:23:50;;;;;;;3.92;1.63;;;;;;;9.27;100.00;94947.44;5040053;28;20033;-89
2022/11/08 01:26:25;;;;;;;4.88;1.50;;;;;;;9.31;100.00;94942.50;5022815;28;20349;-89
2022/11/08 01:28:51;;;;;;;3.20;1.52;;;;;;;9.24;100.00;94937.44;5022962;28;20029;-89
2022/11/08 01:31:22;;;;;;;6.05;1.52;;;;;;;9.18;100.00;94949.69;5022771;28;20028;-89
2022/11/08 01:33:49;;;;;;;4.30;1.85;;;;;;;9.07;100.00;94950.59;5040489;28;20041;-89
2022/11/08 01:36:19;;;;;;;4.85;1.75;;;;;;;9.14;100.00;94943.34;5039406;28;20104;-89
2022/11/08 01:38:45;;;;;;;3.30;1.60;;;;;;;9.13;100.00;94941.78;5023859;28;20021;-89
2022/11/08 01:41:12;;;;;;;4.55;1.63;;;;;;;9.09;100.00;94939.88;5038921;28;20032;-89
2022/11/08 01:43:41;;;;;;;3.15;1.52;;;;;;;9.12;100.00;94948.03;5023219;28;20025;-89
2022/11/08 01:46:32;;;;;;;5.35;1.63;;;;;;;9.08;100.00;94949.56;5039718;28;20024;-89
2022/11/08 01:49:18;;;;;;;3.38;1.42;;;;;;;9.13;100.00;94944.41;5056978;28;20028;-89
2022/11/08 01:52:14;;;;;;;4.70;1.50;;;;;;;9.34;100.00;94942.81;5023171;28;20029;-89
2022/11/08 01:54:55;;;;;;;3.63;1.13;;;;;;;9.45;100.00;94946.31;5038887;28;20040;-89
2022/11/08 01:57:29;;;;;;;2.22;1.08;;;;;;;9.54;100.00;94935.44;5023448;28;20032;-89
2022/11/08 01:59:58;;;;;;;2.63;1.40;;;;;;;9.65;100.00;94931.09;5023109;28;20013;-89
2022/11/08 02:02:23;;;;;;;3.08;1.05;;;;;;;9.51;100.00;94935.94;5022791;28;20025;-88
2022/11/08 02:04:49;;;;;;;2.35;1.10;;;;;;;9.33;100.00;94932.59;5038950;28;20032;-88
2022/11/08 02:07:15;;;;;;;3.70;1.17;;;;;;;9.34;100.00;94931.56;5022691;28;20116;-88
2022/11/08 02:09:42;;;;;;;9.40;1.50;;;;;;;9.35;100.00;94938.38;5026663;28;20021;-88
2022/11/08 02:12:07;;;;;;;4.05;1.35;;;;;;;9.45;100.00;94938.47;5046162;28;20028;-88
2022/11/08 02:14:34;;;;;;;5.40;1.50;;;;;;;9.55;100.00;94927.34;5033453;28;20036;-88
2022/11/08 02:16:59;;;;;;;2.20;1.17;;;;;;;9.55;100.00;94927.34;5032664;28;20021;-88
2022/11/08 02:19:42;;;;;;;7.55;1.15;;;;;;;9.74;100.00;94925.16;5042993;28;20067;-88
2022/11/08 02:22:17;;;;;;;4.07;1.10;;;;;;;9.85;100.00;94917.41;5042411;28;20033;-89
2022/11/08 02:24:43;;;;;;;8.07;1.63;;;;;;;9.67;100.00;94926.38;5043157;28;20453;-88
2022/11/08 02:27:09;;;;;;;10.15;1.45;;;;;;;9.71;100.00;94917.03;5033110;28;20024;-87
2022/11/08 02:29:35;;;;;;;2.78;1.00;;;;;;;9.59;100.00;94914.53;5030429;28;20062;-88
2022/11/08 02:32:01;;;;;;;4.13;1.98;;;;;;;9.40;100.00;94901.03;5026219;28;20021;-88
2022/11/08 02:34:52;;;;;;;3.42;1.70;;;;;;;9.26;100.00;94909.25;5026073;28;20120;-89
2022/11/08 02:37:21;;;;;;;5.15;1.52;;;;;;;9.28;100.00;94907.19;5054675;28;20032;-89
2022/11/08 02:39:47;;;;;;;4.65;2.00;;;;;;;9.26;100.00;94911.88;5063085;28;20341;-89
2022/11/08 02:42:13;;;;;;;8.98;2.67;;;;;;;9.37;100.00;94909.34;5062484;28;20029;-89
2022/11/08 02:44:39;;;;;;;8.98;2.38;;;;;;;9.36;100.00;94908.56;5045710;28;20029;-89
2022/11/08 02:47:05;;;;;;;7.57;2.70;;;;;;;9.31;100.00;94911.13;5062352;28;20032;-89
2022/11/08 02:49:30;;;;;;;4.88;2.33;;;;;;;9.25;100.00;94901.66;5062278;28;20319;-88
2022/11/08 02:51:56;;;;;;;4.55;2.13;;;;;;;9.16;100.00;94902.06;5045573;28;20025;-89
2022/11/08 02:54:22;;;;;;;5.35;2.20;;;;;;;9.15;100.00;94902.34;5046072;28;20036;-88
2022/11/08 02:56:47;;;;;;;7.22;3.45;;;;;;;9.17;100.00;94895.81;5045357;28;20035;-89
2022/11/08 02:59:13;;;;;;;6.28;3.42;;;;;;;9.22;100.00;94894.31;5045503;28;20319;-88
2022/11/08 03:01:38;;;;;;;6.05;3.10;;;;;;;9.26;100.00;94892.78;5045711;28;20025;-89
2022/11/08 03:04:07;;;;;;;6.30;3.17;;;;;;;9.32;100.00;94895.19;5045168;28;20388;-88
2022/11/08 03:06:32;;;;;;;4.85;2.13;;;;;;;9.37;100.00;94889.22;5046002;28;20039;-89
2022/11/08 03:08:58;;;;;;;6.65;2.25;;;;;;;9.40;100.00;94890.56;5045400;28;20028;-89
2022/11/08 03:11:26;;;;;;;3.95;2.28;;;;;;;9.36;100.00;94892.09;5045451;28;20024;-89
2022/11/08 03:13:51;;;;;;;5.20;2.05;;;;;;;9.29;100.00;94892.28;5045569;28;20060;-89
2022/11/08 03:16:17;;;;;;;3.15;1.52;;;;;;;9.19;100.00;94898.19;5061818;28;20039;-89
2022/11/08 03:18:42;;;;;;;7.13;2.58;;;;;;;9.16;100.00;94896.06;5044863;28;20032;-89
2022/11/08 03:21:08;;;;;;;7.40;2.28;;;;;;;9.24;100.00;94895.63;5045215;28;20029;-89
2022/11/08 03:23:34;;;;;;;8.75;1.95;;;;;;;9.33;100.00;94899.38;5045425;28;20323;-89
2022/11/08 03:26:08;;;;;;;3.85;1.75;;;;;;;9.58;100.00;94890.22;5061850;28;20445;-89
2022/11/08 03:28:35;;;;;;;2.55;1.30;;;;;;;9.61;100.00;94891.53;5030286;28;20029;-89
2022/11/08 03:31:01;;;;;;;5.22;1.40;;;;;;;9.64;100.00;94885.84;5045771;28;20028;-89
2022/11/08 03:33:26;;;;;;;3.17;1.00;;;;;;;9.55;100.00;94892.53;5045256;28;20017;-88
2022/11/08 03:35:52;;;;;;;6.78;1.40;;;;;;;9.54;100.00;94890.97;5045596;28;20058;-89
2022/11/08 03:38:18;;;;;;;4.63;1.58;;;;;;;9.58;100.00;94885.00;5045190;28;20334;-89
2022/11/08 03:40:44;;;;;;;6.72;1.42;;;;;;;9.60;100.00;94884.72;5045103;28;20024;-88
2022/11/08 03:43:09;;;;;;;7.65;1.20;;;;;;;9.57;100.00;94880.00;5044384;28;20025;-89
2022/11/08 03:45:35;;;;;;;4.05;1.23;;;;;;;9.59;100.00;94889.19;5045348;28;20025;-88
2022/11/08 03:48:01;;;;;;;3.10;1.60;;;;;;;9.66;100.00;94890.78;5061266;28;20024;-89
2022/11/08 03:50:28;;;;;;;3.45;1.30;;;;;;;9.58;100.00;94887.59;5044793;28;20025;-89
2022/11/08 03:52:55;;;;;;;5.53;1.30;;;;;;;9.46;100.00;94882.50;5045102;28;20031;-89
2022/11/08 03:55:22;;;;;;;5.32;1.20;;;;;;;9.62;100.00;94880.06;5045033;28;20032;-89
2022/11/08 03:57:49;;;;;;;2.08;1.20;;;;;;;9.56;100.00;94881.84;5044509;28;20020;-89
2022/11/08 04:00:17;;;;;;;6.47;1.35;;;;;;;9.48;100.00;94883.06;5060918;28;20021;-89
2022/11/08 04:02:43;;;;;;;4.70;1.63;;;;;;;9.39;100.00;94892.38;5061033;28;20028;-89
2022/11/08 04:05:10;;;;;;;4.50;1.35;;;;;;;9.47;100.00;94888.53;5044319;28;20031;-89
2022/11/08 04:07:36;;;;;;;5.47;1.55;;;;;;;9.51;100.00;94886.22;5060695;28;20027;-89
2022/11/08 04:10:04;;;;;;;4.03;1.52;;;;;;;9.55;100.00;94874.22;5044737;28;20025;-89
2022/11/08 04:15:17;;;;;;;4.38;1.10;;;;;;;9.48;100.00;94875.22;5063468;28;20043;-89
2022/11/08 04:23:14;;;;;;;1.80;1.30;;;;;;;9.44;100.00;94868.13;5063410;28;20045;-88
2022/11/08 04:25:39;;;;;;;2.55;1.30;;;;;;;9.38;100.00;94874.31;5043897;28;20028;-88
2022/11/08 04:28:05;;;;;;;10.82;1.50;;;;;;;9.35;100.00;94875.63;5060580;28;20036;-88
2022/11/08 04:30:31;;;;;;;2.60;1.23;;;;;;;9.31;100.00;94879.75;5060243;28;20039;-88
2022/11/08 04:33:00;;;;;;;2.55;1.20;;;;;;;9.39;100.00;94878.50;5060399;28;20350;-88
2022/11/08 04:35:26;;;;;;;6.18;1.65;;;;;;;9.41;100.00;94879.84;5043598;28;20056;-89
2022/11/08 04:37:53;;;;;;;6.45;1.48;;;;;;;9.52;100.00;94874.72;5038214;28;20098;-89
2022/11/08 04:40:19;;;;;;;6.00;1.52;;;;;;;9.47;100.00;94878.88;5050627;28;20166;-89
2022/11/08 04:42:44;;;;;;;4.82;1.58;;;;;;;9.51;100.00;94875.75;5036067;28;20036;-89
2022/11/08 04:45:10;;;;;;;4.78;1.35;;;;;;;9.42;100.00;94875.44;5043337;28;20084;-91
2022/11/08 04:47:35;;;;;;;5.47;1.67;;;;;;;9.56;100.00;94875.81;5043664;28;20095;-90
2022/11/08 04:50:01;;;;;;;7.40;1.45;;;;;;;9.50;100.00;94867.13;5057458;28;20060;-90
2022/11/08 04:52:27;;;;;;;4.13;1.77;;;;;;;9.48;100.00;94869.19;5023669;28;20334;-90
2022/11/08 04:54:52;;;;;;;5.57;1.40;;;;;;;9.42;100.00;94875.44;5023999;28;20062;-90
2022/11/08 04:57:18;;;;;;;3.92;1.25;;;;;;;9.31;100.00;94874.50;5023983;28;20122;-89
2022/11/08 04:59:44;;;;;;;3.03;1.42;;;;;;;9.35;100.00;94865.16;5022259;28;20430;-90
2022/11/08 05:02:09;;;;;;;2.15;1.27;;;;;;;9.37;100.00;94868.31;5028092;28;20029;-89
2022/11/08 05:04:34;;;;;;;4.60;1.23;;;;;;;9.30;100.00;94870.31;5003925;28;20037;-89
2022/11/08 05:07:00;;;;;;;2.78;1.40;;;;;;;9.29;100.00;94869.53;5003716;28;20041;-90
2022/11/08 05:09:25;;;;;;;5.10;1.17;;;;;;;9.25;100.00;94870.28;5004144;28;20445;-90
2022/11/08 05:11:51;;;;;;;2.33;1.08;;;;;;;9.32;100.00;94869.03;5003458;28;20431;-90
2022/11/08 05:14:19;;;;;;;8.48;1.23;;;;;;;9.25;100.00;94871.06;5020123;28;20033;-90
2022/11/08 05:16:45;;;;;;;1.85;1.10;;;;;;;9.09;100.00;94862.28;5004153;28;20083;-90
2022/11/08 05:19:10;;;;;;;1.92;1.10;;;;;;;9.18;100.00;94863.44;5004217;28;20034;-89
2022/11/08 05:24:20;;;;;;;2.95;1.02;;;;;;;9.38;100.00;94864.66;5022640;28;20036;-89
2022/11/08 05:26:46;;;;;;;2.65;0.88;;;;;;;9.32;100.00;94860.41;5003597;28;20029;-89
2022/11/08 05:29:13;;;;;;;1.58;1.00;;;;;;;9.17;100.00;94864.44;5019920;28;20040;-90
2022/11/08 05:31:39;;;;;;;2.50;0.98;;;;;;;9.18;100.00;94855.59;5020166;28;20315;-91
2022/11/08 05:34:06;;;;;;;0.85;0.70;;;;;;;9.23;100.00;94856.66;5003182;28;20075;-91
2022/11/08 05:36:32;;;;;;;3.38;1.05;;;;;;;9.29;100.00;94855.66;5003854;28;20029;-91
2022/11/08 05:38:57;;;;;;;5.55;1.63;;;;;;;9.33;100.00;94859.38;5003886;28;20021;-91
2022/11/08 05:41:24;;;;;;;3.03;1.63;;;;;;;9.37;100.00;94855.25;5003864;28;20039;-91
2022/11/08 05:43:52;;;;;;;6.15;1.80;;;;;;;9.27;100.00;94860.34;5003069;28;20029;-92
2022/11/08 05:46:18;;;;;;;6.13;2.08;;;;;;;9.23;100.00;94856.66;5003660;28;20029;-91
2022/11/08 05:48:49;;;;;;;4.65;1.50;;;;;;;9.25;100.00;94859.81;5021109;28;20029;-91
2022/11/08 05:51:16;;;;;;;4.25;1.40;;;;;;;9.39;100.00;94853.16;5039441;28;20418;-91
2022/11/08 05:53:46;;;;;;;5.20;2.00;;;;;;;9.33;100.00;94862.00;5055837;28;20337;-91
2022/11/08 05:56:11;;;;;;;5.88;1.25;;;;;;;9.27;100.00;94860.34;5056103;28;20055;-89
2022/11/08 05:58:39;;;;;;;6.38;1.58;;;;;;;9.36;100.00;94860.69;5039546;28;20028;-91
2022/11/08 06:01:08;;;;;;;3.95;1.00;;;;;;;9.47;100.00;94857.97;5061713;28;20035;-91
2022/11/08 06:03:34;;;;;;;5.78;1.35;;;;;;;9.50;100.00;94869.72;5052408;28;20063;-92
2022/11/08 06:06:08;;;;;;;3.10;1.27;;;;;;;9.49;100.00;94868.16;5035686;28;20131;-92
2022/11/08 06:08:34;;;;;;;2.80;1.27;;;;;;;9.39;100.00;94861.00;5031266;28;20387;-91
2022/11/08 06:11:03;;;;;;;7.20;1.45;;;;;;;9.39;100.00;94868.84;5029365;28;20025;-90
2022/11/08 06:13:29;;;;;;;2.53;1.20;;;;;;;9.37;100.00;94867.50;5043002;28;20415;-91
2022/11/08 06:15:59;;;;;;;3.78;1.02;;;;;;;9.50;100.00;94869.72;5039094;28;20029;-90
2022/11/08 06:18:24;;;;;;;2.47;1.00;;;;;;;9.47;100.00;94871.03;5033242;28;20025;-91
2022/11/08 06:20:49;;;;;;;3.25;1.02;;;;;;;9.56;100.00;94867.94;5038621;28;20127;-90
2022/11/08 06:23:15;;;;;;;3.33;1.20;;;;;;;9.56;100.00;94871.38;5042834;28;20032;-90
2022/11/08 06:25:40;;;;;;;6.45;1.50;;;;;;;9.51;100.00;94873.16;5058691;28;20043;-90
2022/11/08 06:28:06;;;;;;;7.43;1.08;;;;;;;9.74;100.00;94872.03;5042547;28;20429;-90
2022/11/08 06:30:31;;;;;;;3.50;1.17;;;;;;;9.93;100.00;94880.31;5042295;28;20029;-90
2022/11/08 06:32:59;;;;;;;2.03;0.95;;;;;;;9.99;100.00;94875.91;5042597;28;20028;-90
2022/11/08 06:35:24;;;;;;;6.10;1.00;;;;;;;10.13;100.00;94878.88;5042741;28;20078;-90
2022/11/08 06:37:49;;;;;;;4.68;1.15;;;;;;;10.17;100.00;94877.31;5058922;28;20029;-90
2022/11/08 06:40:15;;;;;;;4.00;1.00;;;;;;;10.21;100.00;94886.28;5058444;28;20103;-90
2022/11/08 06:42:40;;;;;;;3.08;1.20;;;;;;;10.32;100.00;94884.50;5042496;28;20032;-91
2022/11/08 06:45:06;;;;;;;2.50;1.20;;;;;;;10.42;100.00;94883.81;5058853;28;20024;-90
2022/11/08 06:47:31;;;;;;;3.70;1.60;;;;;;;10.54;100.00;94887.03;5042657;28;20029;-89
2022/11/08 06:49:57;;;;;;;4.68;1.30;;;;;;;10.68;100.00;94889.19;5042357;28;20032;-89
2022/11/08 06:52:23;;;;;;;2.40;1.10;;;;;;;10.82;100.00;94885.06;5058989;28;20036;-89
2022/11/08 06:54:50;;;;;;;1.52;0.90;;;;;;;10.91;100.00;94892.44;5059003;28;20035;-91
2022/11/08 06:57:16;;;;;;;3.92;1.08;;;;;;;11.04;100.00;94886.72;5042846;28;20141;-91
2022/11/08 06:59:41;;;;;;;3.85;1.25;;;;;;;11.01;100.00;94892.47;5053535;28;20063;-91
2022/11/08 07:02:08;;;;;;;3.13;1.00;;;;;;;11.18;100.00;94894.91;5038374;28;20124;-90
2022/11/08 07:04:38;;;;;;;1.48;1.10;;;;;;;11.25;100.00;94895.44;5041099;28;20067;-91
2022/11/08 07:07:11;;;;;;;6.55;1.10;;;;;;;11.30;100.00;94902.53;5042804;28;20025;-91
2022/11/08 07:09:38;;;;;;;4.32;1.70;;;;;;;11.27;100.00;94900.44;5043042;28;20029;-92
2022/11/08 07:12:05;;;;;;;3.55;1.60;;;;;;;11.51;100.00;94897.34;5042582;28;20020;-91
2022/11/08 07:14:31;;;;;;;5.07;1.65;;;;;;;11.51;100.00;94895.50;5042269;28;20120;-90
2022/11/08 07:17:06;;;;;;;;;;;;;;;;;;;;;
2022/11/08 07:19:45;;;;;;;3.00;1.10;;;;;;;11.38;100.00;94894.19;5058902;28;20013;-91
2022/11/08 07:22:10;;;;;;;3.67;1.27;;;;;;;11.75;100.00;94889.78;5043055;28;20056;-92
2022/11/08 07:24:35;;;;;;;5.28;1.40;;;;;;;11.85;100.00;94884.53;5058808;28;20063;-91
2022/11/08 07:27:01;;;;;;;5.57;1.20;;;;;;;11.93;100.00;94891.09;5042221;28;20115;-91
2022/11/08 07:29:30;;;;;;;2.75;1.33;;;;;;;12.01;100.00;94885.34;5058367;28;20050;-92
2022/11/08 07:32:02;;;;;;;4.30;1.20;;;;;;;12.11;100.00;94895.03;5058644;28;20025;-91
2022/11/08 07:34:30;;;;;;;1.87;1.03;;;;;;;12.21;100.00;94893.47;5042954;28;20028;-92
2022/11/08 07:36:55;;;;;;;1.15;0.80;;;;;;;12.31;100.00;94896.09;5042264;28;20279;-91
2022/11/08 07:39:21;;;;;;;2.13;0.90;;;;;;;12.39;100.00;94895.53;5042426;28;20027;-92
2022/11/08 07:41:47;;;;;;;4.20;1.30;;;;;;;12.49;100.00;94901.84;5041477;28;20025;-91
2022/11/08 07:44:13;;;;;;;5.95;1.30;;;;;;;12.54;100.00;94902.63;5058173;28;20086;-90
2022/11/08 07:46:38;;;;;;;3.05;0.95;;;;;;;12.64;100.00;94901.03;5041722;28;20437;-90
2022/11/08 07:49:04;;;;;;;3.28;1.08;;;;;;;12.66;100.00;94898.94;5041446;28;20044;-90
2022/11/08 07:51:29;;;;;;;4.63;1.10;;;;;;;12.82;100.00;94897.03;5041268;28;20039;-90
2022/11/08 07:53:55;;;;;;;2.53;1.02;;;;;;;12.87;100.00;94903.06;5041467;28;20433;-90
2022/11/08 07:56:21;;;;;;;3.13;1.05;;;;;;;12.92;100.00;94912.78;5059019;28;20104;-91
2022/11/08 07:58:46;;;;;;;2.55;1.00;;;;;;;13.07;100.00;94911.97;5041452;28;20031;-91
2022/11/08 08:01:11;;;;;;;3.38;1.20;;;;;;;13.19;100.00;94908.19;5041564;28;20027;-90
2022/11/08 08:03:37;;;;;;;4.07;1.40;;;;;;;13.27;100.00;94902.38;5040925;28;20032;-90
2022/11/08 08:06:03;;;;;;;2.78;1.08;;;;;;;13.03;100.00;94900.38;5041205;28;20067;-90
2022/11/08 08:08:29;;;;;;;2.67;1.20;;;;;;;13.28;100.00;94906.59;5058630;28;20085;-90
2022/11/08 08:10:59;;;;;;;3.83;1.20;;;;;;;13.29;100.00;94908.97;5057498;28;20509;-89
2022/11/08 08:13:26;;;;;;;3.53;0.90;;;;;;;13.36;100.00;94911.31;5057549;28;20029;-90
2022/11/08 08:15:51;;;;;;;3.83;1.30;;;;;;;13.52;100.00;94896.22;5040765;28;20032;-91
2022/11/08 08:18:19;;;;;;;4.47;1.63;;;;;;;13.62;100.00;94907.75;5041171;28;20028;-91
2022/11/08 08:20:45;;;;;;;2.83;1.20;;;;;;;13.85;100.00;94895.75;5041223;28;20171;-91
2022/11/08 08:23:28;;;;;;;3.60;1.25;;;;;;;13.84;100.00;94902.09;5040165;28;20497;-91
2022/11/08 08:25:57;;;;;;;2.63;1.13;;;;;;;13.35;100.00;94911.56;5020245;28;20040;-91
2022/11/08 08:28:45;;;;;;;4.22;1.10;;;;;;;13.72;100.00;94902.44;5020860;28;20427;-91
2022/11/08 08:31:36;;;;;;;7.57;1.25;;;;;;;13.95;100.00;94905.44;5011109;28;20042;-89
2022/11/08 08:34:14;;;;;;;;;;;;;;;;;;;;;
2022/11/08 08:37:02;;;;;;;;;;;;;;;;;;;;;
2022/11/08 08:39:30;;;;;;;2.72;1.15;;;;;;;14.06;100.00;94906.94;5037245;28;20013;-90
2022/11/08 08:42:05;;;;;;;;;;;;;;;;;;;;;
2022/11/08 08:47:55;;;;;;;1.30;1.10;;;;;;;14.47;100.00;94907.66;5037441;28;20061;-90
2022/11/08 08:50:31;;;;;;;;;;;;;;;;;;;;;
2022/11/08 08:56:32;;;;;;;2.85;1.15;;;;;;;14.62;100.00;94904.06;5024450;28;20120;-91
2022/11/08 08:59:05;;;;;;;2.10;1.27;;;;;;;14.77;100.00;94909.19;5004123;28;20334;-92
2022/11/08 09:01:30;;;;;;;1.98;1.10;;;;;;;14.96;100.00;94909.25;5020154;28;20112;-90
2022/11/08 09:03:57;;;;;;;2.15;1.20;;;;;;;14.94;92.94;94913.28;5020095;28;20123;-90
2022/11/08 09:06:23;;;;;;;3.35;1.20;;;;;;;15.40;90.32;94914.53;5020367;28;20090;-90
2022/11/08 09:08:48;;;;;;;3.95;0.73;;;;;;;15.66;79.13;94911.56;5020100;28;20533;-90
2022/11/08 09:11:13;;;;;;;1.50;0.73;;;;;;;15.86;75.60;94909.72;5037482;28;20060;-91
2022/11/08 09:13:42;;;;;;;1.38;0.80;;;;;;;15.89;83.63;94915.22;5036466;28;20025;-90
2022/11/08 09:16:12;;;;;;;0.93;0.70;;;;;;;16.05;82.32;94915.78;5020551;28;20029;-91
2022/11/08 09:18:42;;;;;;;2.72;0.93;;;;;;;16.20;79.68;94916.63;5020403;28;20033;-91
2022/11/08 09:21:08;;;;;;;3.15;1.38;;;;;;;16.21;88.02;94921.63;5037097;28;20029;-91
2022/11/08 09:23:36;;;;;;;4.85;1.10;;;;;;;16.09;89.59;94919.41;5020212;28;20033;-91
2022/11/08 09:26:11;;;;;;;2.55;0.93;;;;;;;16.25;85.99;94913.88;5035936;28;20457;-91
2022/11/08 09:28:44;;;;;;;3.80;1.17;;;;;;;16.30;81.45;94923.59;5037311;28;20104;-91
2022/11/08 09:31:17;;;;;;;2.92;0.98;;;;;;;16.13;85.18;94916.19;5019607;28;20022;-90
2022/11/08 09:33:50;;;;;;;3.58;1.00;;;;;;;16.08;100.00;94915.22;5003469;28;20029;-92
2022/11/08 09:36:16;;;;;;;3.72;1.60;;;;;;;15.76;100.00;94919.34;5036214;28;20026;-90
2022/11/08 09:38:44;;;;;;;2.03;0.95;;;;;;;15.51;97.94;94923.16;5037354;28;20022;-92
2022/11/08 09:41:37;;;;;;;1.55;0.93;;;;;;;15.78;96.53;94919.06;5019333;28;20095;-90
2022/11/08 09:44:40;;;;;;;1.52;0.93;;;;;;;15.64;96.84;94919.00;5036167;28;20025;-89
2022/11/08 09:47:27;;;;;;;2.55;1.10;;;;;;;15.45;100.00;94913.69;5037026;28;20029;-90
2022/11/08 09:49:58;;;;;;;2.20;0.90;;;;;;;15.58;100.00;94920.16;5019666;28;20128;-90
2022/11/08 09:52:44;;;;;;;;;;;;;;;;;;;;;
2022/11/08 09:55:16;;;;;;;5.38;1.50;;;;;;;15.84;86.94;94923.97;5021170;28;20434;-91
2022/11/08 09:58:03;;;;;;;2.47;1.10;;;;;;;16.20;91.56;94917.38;5037042;28;20041;-90
2022/11/08 10:00:43;;;;;;;1.60;0.82;;;;;;;16.37;88.31;94916.09;5019066;28;20075;-91
2022/11/08 10:03:14;;;;;;;1.88;0.77;;;;;;;16.46;87.43;94918.84;5020512;28;20025;-90
2022/11/08 10:05:52;;;;;;;3.10;0.90;;;;;;;16.62;86.85;94916.69;5019385;28;20025;-90
2022/11/08 10:08:27;;;;;;;1.92;0.90;;;;;;;16.64;85.16;94914.53;5036597;28;20025;-89
2022/11/08 10:11:16;;;;;;;2.50;1.23;;;;;;;16.60;89.12;94908.28;5035441;28;20093;-90
2022/11/08 10:13:48;;;;;;;3.25;1.13;;;;;;;16.61;91.17;94905.34;5018006;28;20033;-88
2022/11/08 10:16:44;;;;;;;3.00;0.98;;;;;;;16.52;88.93;94891.22;5019338;28;20075;-88
2022/11/08 10:20:05;;;;;;;4.40;1.23;;;;;;;16.56;92.54;94896.72;5035724;28;20032;-89
2022/11/08 10:22:40;;;;;;;5.10;1.30;;;;;;;16.42;93.43;94889.53;5009656;28;20450;-88
2022/11/08 10:25:24;;;;;;;3.90;1.17;;;;;;;16.39;93.50;94892.78;5018929;28;20032;-89
2022/11/08 10:27:53;;;;;;;2.60;1.13;;;;;;;16.44;95.65;94882.09;5035667;28;20373;-89
2022/11/08 10:30:26;;;;;;;3.97;1.20;;;;;;;16.46;92.06;94881.81;5018513;28;20036;-89
2022/11/08 10:32:56;;;;;;;5.63;1.23;;;;;;;16.66;92.24;94884.09;5035719;28;20026;-88
2022/11/08 10:35:47;;;;;;;2.38;1.15;;;;;;;16.73;94.20;94877.63;5019132;28;20327;-89
2022/11/08 10:38:19;;;;;;;4.28;1.35;;;;;;;16.89;93.42;94873.63;5006545;28;20048;-88
2022/11/08 10:40:56;;;;;;;4.63;1.13;;;;;;;17.08;92.94;94873.53;5022370;28;20025;-89
2022/11/08 10:43:48;;;;;;;2.42;0.98;;;;;;;17.22;92.58;94872.75;5039219;28;20028;-88
2022/11/08 10:46:29;;;;;;;3.40;1.08;;;;;;;17.16;89.70;94873.91;5004079;28;20099;-89
2022/11/08 10:48:58;;;;;;;2.13;1.10;;;;;;;17.16;88.28;94879.22;5040032;28;20033;-89
2022/11/08 10:51:23;;;;;;;2.53;1.02;;;;;;;17.10;90.33;94874.03;5005904;28;20320;-89
2022/11/08 10:53:51;;;;;;;2.97;1.02;;;;;;;17.20;88.97;94870.38;5006590;28;20033;-89
2022/11/08 10:56:19;;;;;;;1.52;0.95;;;;;;;17.21;84.96;94866.66;5022616;28;20028;-88
2022/11/08 10:58:47;;;;;;;5.53;1.00;;;;;;;17.37;83.20;94869.78;5022551;28;20017;-89
2022/11/08 11:01:24;;;;;;;4.28;1.27;;;;;;;17.45;85.20;94872.78;5038581;28;20029;-89
2022/11/08 11:04:00;;;;;;;2.50;1.02;;;;;;;17.53;84.39;94869.44;5022191;28;20052;-89
2022/11/08 11:06:31;;;;;;;3.67;1.02;;;;;;;17.92;83.49;94869.88;5023775;28;20334;-90
2022/11/08 11:08:59;;;;;;;2.63;1.20;;;;;;;18.08;75.63;94857.84;5005909;28;20029;-89
2022/11/08 11:11:31;;;;;;;2.60;1.10;;;;;;;18.53;78.24;94858.09;5021615;28;20033;-89
2022/11/08 11:14:17;;;;;;;3.67;1.05;;;;;;;18.54;78.49;94851.69;5021865;28;20342;-86
2022/11/08 11:17:28;;;;;;;2.20;1.10;;;;;;;18.26;71.37;94842.03;5021895;28;20174;-86
2022/11/08 11:19:55;;;;;;;3.55;1.00;;;;;;;18.40;74.69;94849.91;5021865;28;20028;-88
2022/11/08 11:22:31;;;;;;;1.65;1.00;;;;;;;18.67;71.22;94839.41;5021043;28;20025;-86
2022/11/08 11:25:12;;;;;;;6.95;0.90;;;;;;;18.49;71.03;94834.78;5038443;28;20059;-87
2022/11/08 11:27:40;;;;;;;1.25;0.70;;;;;;;18.30;71.29;94836.91;5005334;28;20033;-87
2022/11/08 11:30:19;;;;;;;2.17;0.77;;;;;;;17.85;71.14;94837.69;5021680;28;20029;-86
2022/11/08 11:33:08;;;;;;;1.83;0.93;;;;;;;17.70;71.44;94831.66;5021554;28;20072;-87
2022/11/08 11:35:47;;;;;;;1.95;0.88;;;;;;;17.39;74.79;94832.38;5021681;28;20419;-87
2022/11/08 11:38:27;;;;;;;3.05;0.90;;;;;;;17.26;76.97;94834.00;5021633;28;20435;-87
2022/11/08 11:40:59;;;;;;;1.42;0.85;;;;;;;17.02;78.93;94821.78;5038635;28;20033;-86
2022/11/08 11:43:43;;;;;;;3.63;1.00;;;;;;;17.00;81.80;94821.28;5037728;28;20434;-86
2022/11/08 11:46:23;;;;;;;5.82;1.40;;;;;;;16.89;77.21;94830.47;5038773;28;20030;-87
2022/11/08 11:48:58;;;;;;;5.47;1.10;;;;;;;17.12;75.65;94825.28;5037612;28;20312;-87
2022/11/08 11:51:28;;;;;;;5.57;1.48;;;;;;;17.47;74.29;94823.72;5020817;28;20029;-87
2022/11/08 11:53:53;;;;;;;5.55;1.05;;;;;;;17.77;74.06;94818.81;5021587;28;20029;-87
2022/11/08 11:56:34;;;;;;;3.47;0.85;;;;;;;18.14;68.96;94810.78;5037743;28;20080;-86
2022/11/08 11:59:56;;;;;;;4.93;1.25;;;;;;;18.37;69.40;94810.72;5021000;28;20028;-86
2022/11/08 12:02:39;;;;;;;3.10;1.27;;;;;;;18.47;65.56;94810.44;5004671;28;20090;-87
2022/11/08 12:05:23;;;;;;;3.00;1.20;;;;;;;18.65;66.20;94811.28;5038412;28;20126;-87
2022/11/08 12:07:59;;;;;;;3.85;1.23;;;;;;;18.64;62.54;94807.06;5038455;28;20025;-87
2022/11/08 12:10:30;;;;;;;2.97;0.90;;;;;;;18.57;65.86;94798.00;5020416;28;20029;-87
2022/11/08 12:13:03;;;;;;;4.22;1.10;;;;;;;18.57;65.90;94803.31;5037365;28;20021;-86
2022/11/08 12:15:28;;;;;;;3.38;1.15;;;;;;;18.75;63.27;94802.25;5020690;28;20033;-86
2022/11/08 12:18:16;;;;;;;2.78;1.13;;;;;;;18.59;66.94;94809.09;5020730;28;20033;-86
2022/11/08 12:21:02;;;;;;;4.22;1.25;;;;;;;18.70;64.77;94804.28;5022750;28;20067;-91